Hubbards, Canada
Current Conditions -  °F | °C
As of 1:00 AM on Friday 28 Nov 2014 (Local Time) from CYHZ Reporting Station
Overcast Overcast  
Wind Chill: 20°   Ceiling: 2500
Heat Index: 28°   Visibility: 15mi
Dew Point: 25°   Wind: 9mph
Humidity: 86%   Direction: 340°NNW
Pressure: 29.92"   Gusts: NA
Location:  44.63°N, 64.05°W
Report Text: CYHZ 280500Z 34008KT 15SM SCT010 OVC025 M02/M04 A2992 RMK SF4SC4 SLP138
Loading
Personal Weather Stations






























Interactive Weather Map New forecast layout! Learn more

10-Day Weather Forecast

Advertisements
Track Severe Weather on mobile